createdAt,value
2023-01-29T00:00:21.608Z,76.94
2023-01-29T00:03:05.838Z,76.97
2023-01-29T00:05:50.340Z,76.51
2023-01-29T00:08:34.831Z,75.28
2023-01-29T00:11:18.245Z,76.54
2023-01-29T00:14:01.404Z,76.03
2023-01-29T00:16:44.540Z,76.50
2023-01-29T00:19:27.884Z,77.39
2023-01-29T00:22:14.876Z,75.92
2023-01-29T00:25:00.597Z,76.46
2023-01-29T00:27:46.419Z,77.13
2023-01-29T00:30:29.645Z,76.16
2023-01-29T00:33:13.679Z,75.62
2023-01-29T00:35:57.155Z,76.77
2023-01-29T00:38:41.690Z,76.03
2023-01-29T00:41:42.479Z,76.59
2023-01-29T00:44:44.449Z,76.83
2023-01-29T00:47:34.850Z,76.53
2023-01-29T00:50:18.596Z,77.54
2023-01-29T00:53:01.907Z,75.98
2023-01-29T00:55:47.569Z,77.08
2023-01-29T00:58:34.318Z,76.57
2023-01-29T01:01:17.905Z,76.02
2023-01-29T01:04:00.115Z,76.96
2023-01-29T01:06:44.247Z,75.97
2023-01-29T01:09:46.885Z,76.56
2023-01-29T01:12:33.175Z,77.54
2023-01-29T01:15:16.303Z,77.78
2023-01-29T01:18:01.118Z,78.11
2023-01-29T01:20:44.304Z,77.69
2023-01-29T01:23:28.086Z,78.63
2023-01-29T01:26:11.953Z,78.83
2023-01-29T01:28:56.502Z,78.01
2023-01-29T01:31:39.671Z,78.75
2023-01-29T01:34:23.166Z,79.96
2023-01-29T01:37:06.581Z,79.11
2023-01-29T01:39:50.645Z,78.90
2023-01-29T01:42:33.774Z,78.30
2023-01-29T01:45:24.883Z,78.33
2023-01-29T01:48:14.392Z,78.77
2023-01-29T01:51:03.365Z,78.34
2023-01-29T01:53:58.633Z,79.04
2023-01-29T01:56:45.963Z,78.29
2023-01-29T01:59:29.076Z,77.65
2023-01-29T02:02:32.092Z,77.68
2023-01-29T02:05:33.492Z,78.19
2023-01-29T02:08:36.578Z,78.09
2023-01-29T02:11:19.689Z,79.34
2023-01-29T02:14:03.658Z,79.43
2023-01-29T02:16:46.797Z,78.51
2023-01-29T02:19:45.720Z,79.17
2023-01-29T02:22:54.118Z,79.24
2023-01-29T02:26:16.116Z,78.50
2023-01-29T02:29:27.597Z,79.03
2023-01-29T02:32:21.677Z,79.56
2023-01-29T02:35:30.240Z,80.01
2023-01-29T02:38:22.290Z,80.04
2023-01-29T02:41:12.049Z,80.31
2023-01-29T02:44:03.115Z,79.31
2023-01-29T02:46:53.911Z,80.46
2023-01-29T02:49:45.600Z,80.95
2023-01-29T02:52:37.729Z,82.03
2023-01-29T02:55:26.088Z,80.38
2023-01-29T02:58:14.746Z,81.00
2023-01-29T03:01:05.734Z,81.14
2023-01-29T03:03:57.017Z,80.42
2023-01-29T03:06:44.336Z,81.46
2023-01-29T03:09:34.508Z,80.75
2023-01-29T03:12:39.453Z,81.25
2023-01-29T03:15:29.566Z,81.13
2023-01-29T03:18:27.572Z,80.75
2023-01-29T03:21:34.493Z,80.30
2023-01-29T03:24:39.273Z,80.90
2023-01-29T03:27:45.460Z,79.84
2023-01-29T03:30:49.584Z,80.36
2023-01-29T03:33:40.539Z,80.52
2023-01-29T03:36:38.141Z,80.97
2023-01-29T03:39:21.316Z,79.97
2023-01-29T03:42:10.215Z,79.57
2023-01-29T03:45:00.496Z,78.58
2023-01-29T03:47:50.488Z,78.64
2023-01-29T03:50:40.303Z,79.68
2023-01-29T03:53:29.767Z,79.31
2023-01-29T03:56:29.390Z,79.86
2023-01-29T04:02:27.648Z,80.48
2023-01-29T04:08:18.313Z,80.78
2023-01-29T04:11:09.764Z,81.67
2023-01-29T04:13:58.327Z,82.33
2023-01-29T04:16:46.306Z,82.10
2023-01-29T04:19:29.959Z,81.82
2023-01-29T04:22:18.540Z,81.27
2023-01-29T04:25:08.727Z,81.70
2023-01-29T04:28:05.747Z,81.67
2023-01-29T04:34:05.333Z,81.35
2023-01-29T04:37:02.735Z,81.35
2023-01-29T04:39:50.989Z,81.48
2023-01-29T04:42:42.957Z,81.40
2023-01-29T04:45:38.212Z,80.77
2023-01-29T04:48:28.717Z,81.03
2023-01-29T04:51:23.519Z,81.06
2023-01-29T04:54:13.905Z,80.73
2023-01-29T04:57:03.159Z,80.35
2023-01-29T04:59:52.437Z,80.08
2023-01-29T05:02:42.693Z,80.89
2023-01-29T05:05:25.967Z,81.55
2023-01-29T05:08:10.577Z,82.25
2023-01-29T05:10:56.171Z,81.04
2023-01-29T05:13:43.535Z,80.77
2023-01-29T05:16:32.075Z,81.58
2023-01-29T05:19:18.163Z,81.43
2023-01-29T05:22:01.793Z,80.97
2023-01-29T05:24:47.063Z,81.82
2023-01-29T05:27:53.353Z,81.09
2023-01-29T05:30:38.279Z,80.53
2023-01-29T05:33:23.506Z,80.97
2023-01-29T05:36:10.568Z,80.29
2023-01-29T05:38:53.733Z,80.80
2023-01-29T05:41:36.896Z,80.16
2023-01-29T05:44:20.576Z,79.80
2023-01-29T05:47:04.088Z,80.95
2023-01-29T05:49:47.479Z,80.10
2023-01-29T05:52:32.071Z,80.94
2023-01-29T05:55:15.138Z,80.63
2023-01-29T05:57:58.201Z,81.49
2023-01-29T06:00:41.649Z,81.86
2023-01-29T06:03:24.851Z,81.33
2023-01-29T06:06:08.436Z,81.13
2023-01-29T06:08:53.189Z,81.40
2023-01-29T06:11:36.359Z,81.46
2023-01-29T06:14:19.969Z,80.68
2023-01-29T06:17:03.090Z,80.59
2023-01-29T06:19:48.310Z,80.44
2023-01-29T06:22:33.440Z,80.54
2023-01-29T06:25:18.073Z,81.30
2023-01-29T06:28:01.160Z,80.27
2023-01-29T06:30:49.212Z,80.57
2023-01-29T06:33:32.714Z,80.11
2023-01-29T06:36:15.859Z,79.61
2023-01-29T06:39:01.257Z,79.66
2023-01-29T06:41:47.544Z,78.82
2023-01-29T06:44:30.674Z,78.47
2023-01-29T06:47:13.778Z,78.60
2023-01-29T06:49:59.300Z,77.37
2023-01-29T06:52:42.512Z,77.61
2023-01-29T06:55:25.704Z,77.36
2023-01-29T06:58:11.682Z,77.69
2023-01-29T07:00:54.875Z,76.83
2023-01-29T07:03:38.544Z,77.12
2023-01-29T07:06:22.386Z,77.11
2023-01-29T07:09:06.316Z,76.71
2023-01-29T07:11:49.805Z,76.66
2023-01-29T07:14:34.626Z,76.49
2023-01-29T07:17:17.760Z,76.62
2023-01-29T07:20:00.936Z,77.43
2023-01-29T07:22:47.649Z,76.99
2023-01-29T07:25:31.178Z,76.68
2023-01-29T07:28:14.410Z,76.74
2023-01-29T07:30:59.555Z,76.73
2023-01-29T07:33:50.210Z,75.50
2023-01-29T07:36:33.365Z,75.64
2023-01-29T07:39:16.832Z,76.27
2023-01-29T07:42:03.991Z,76.32
2023-01-29T07:44:47.086Z,75.22
2023-01-29T07:47:33.080Z,76.07
2023-01-29T07:50:16.534Z,75.39
2023-01-29T07:53:03.041Z,75.61
2023-01-29T07:55:46.438Z,74.95
2023-01-29T07:58:31.918Z,75.24
2023-01-29T08:01:15.209Z,75.03
2023-01-29T08:03:59.799Z,74.46
2023-01-29T08:06:44.392Z,74.13
2023-01-29T08:09:27.502Z,74.76
2023-01-29T08:12:10.691Z,75.03
2023-01-29T08:15:02.767Z,73.65
2023-01-29T08:17:57.250Z,74.71
2023-01-29T08:20:42.931Z,73.86
2023-01-29T08:23:26.094Z,74.39
2023-01-29T08:26:11.669Z,73.31
2023-01-29T08:28:56.028Z,72.81
2023-01-29T08:31:39.197Z,72.59
2023-01-29T08:34:22.307Z,72.56
2023-01-29T08:37:07.036Z,71.66
2023-01-29T08:39:50.199Z,72.03
2023-01-29T08:42:33.326Z,70.03
2023-01-29T08:45:17.667Z,70.45
2023-01-29T08:48:01.368Z,69.67
2023-01-29T08:50:44.853Z,70.47
2023-01-29T08:53:30.947Z,69.27
2023-01-29T08:56:14.191Z,69.53
2023-01-29T08:58:59.723Z,69.11
2023-01-29T09:01:42.814Z,69.61
2023-01-29T09:04:29.310Z,69.84
2023-01-29T09:07:12.436Z,69.70
2023-01-29T09:09:56.984Z,69.90
2023-01-29T09:12:40.109Z,71.59
2023-01-29T09:15:23.471Z,70.27
2023-01-29T09:18:07.246Z,70.67
2023-01-29T09:20:52.236Z,70.82
2023-01-29T09:23:36.004Z,69.34
2023-01-29T09:26:20.944Z,69.95
2023-01-29T09:29:04.099Z,68.54
2023-01-29T09:31:47.508Z,70.49
2023-01-29T09:34:30.840Z,69.29
2023-01-29T09:37:13.968Z,69.54
2023-01-29T09:39:57.032Z,70.14
2023-01-29T09:42:51.031Z,70.45
2023-01-29T09:45:34.938Z,70.21
2023-01-29T09:48:18.627Z,69.58
2023-01-29T09:51:06.750Z,69.23
2023-01-29T09:53:58.711Z,69.52
2023-01-29T09:56:45.314Z,68.21
2023-01-29T09:59:35.237Z,66.34
2023-01-29T10:02:38.664Z,67.73
2023-01-29T10:05:34.545Z,67.92
2023-01-29T10:08:44.273Z,66.76
2023-01-29T10:11:43.448Z,67.71
2023-01-29T10:14:38.538Z,67.98
2023-01-29T10:17:50.315Z,68.38
2023-01-29T10:20:51.401Z,68.40
2023-01-29T10:23:38.547Z,69.73
2023-01-29T10:26:27.740Z,69.18
2023-01-29T10:29:17.942Z,69.73
2023-01-29T10:32:08.286Z,69.28
2023-01-29T10:34:58.136Z,69.11
2023-01-29T10:37:45.818Z,69.11
2023-01-29T10:40:38.348Z,70.23
2023-01-29T10:43:32.221Z,69.12
2023-01-29T10:46:24.873Z,67.98
2023-01-29T10:49:23.279Z,67.93
2023-01-29T10:52:19.161Z,68.14
2023-01-29T10:55:16.155Z,68.85
2023-01-29T10:58:10.860Z,68.99
2023-01-29T11:00:54.132Z,68.48
2023-01-29T11:03:37.780Z,67.39
2023-01-29T11:06:25.553Z,67.22
2023-01-29T11:09:19.166Z,67.58
2023-01-29T11:12:08.320Z,67.52
2023-01-29T11:14:56.560Z,67.26
2023-01-29T11:17:40.428Z,67.79
2023-01-29T11:20:29.638Z,66.88
2023-01-29T11:23:38.073Z,66.89
2023-01-29T11:26:24.312Z,66.40
2023-01-29T11:29:39.866Z,65.88
2023-01-29T11:32:35.531Z,65.86
2023-01-29T11:35:41.684Z,66.72
2023-01-29T11:39:23.979Z,66.52
2023-01-29T11:42:21.814Z,65.00
2023-01-29T11:45:06.813Z,65.00
2023-01-29T11:47:56.536Z,64.15
2023-01-29T11:50:44.763Z,62.04
2023-01-29T11:53:40.260Z,63.15
2023-01-29T11:56:33.550Z,62.98
2023-01-29T11:59:40.174Z,62.90
2023-01-29T12:02:36.421Z,62.72
2023-01-29T12:05:30.454Z,62.87
2023-01-29T12:08:19.406Z,62.82
2023-01-29T12:11:09.929Z,63.99
2023-01-29T12:13:55.581Z,63.23
2023-01-29T12:16:50.994Z,63.52
2023-01-29T12:19:44.651Z,63.20
2023-01-29T12:22:44.543Z,64.19
2023-01-29T12:25:39.929Z,64.13
2023-01-29T12:28:41.366Z,63.78
2023-01-29T12:31:40.506Z,63.34
2023-01-29T12:34:32.372Z,64.37
2023-01-29T12:37:25.663Z,64.36
2023-01-29T12:40:16.823Z,65.03
2023-01-29T12:43:09.585Z,65.69
2023-01-29T12:45:57.009Z,66.39
2023-01-29T12:48:45.187Z,67.48
2023-01-29T12:51:34.960Z,66.36
2023-01-29T12:54:23.513Z,65.60
2023-01-29T12:57:11.781Z,65.72
2023-01-29T12:59:59.707Z,65.65
2023-01-29T13:02:53.419Z,65.66
2023-01-29T13:05:45.517Z,65.27
2023-01-29T13:08:39.755Z,65.98
2023-01-29T13:11:27.405Z,65.73
2023-01-29T13:14:24.723Z,66.35
2023-01-29T13:17:14.483Z,66.70
2023-01-29T13:20:05.205Z,66.61
2023-01-29T13:22:49.648Z,66.24
2023-01-29T13:25:35.288Z,65.93
2023-01-29T13:28:21.011Z,66.63
2023-01-29T13:31:19.696Z,67.60
2023-01-29T13:34:18.382Z,66.83
2023-01-29T13:37:04.263Z,65.37
2023-01-29T13:39:52.115Z,65.66
2023-01-29T13:42:53.450Z,66.34
2023-01-29T13:45:50.345Z,66.38
2023-01-29T13:48:36.965Z,67.42
2023-01-29T13:51:23.751Z,66.43
2023-01-29T13:54:17.147Z,67.84
2023-01-29T13:57:04.568Z,67.89
2023-01-29T13:59:54.738Z,68.02
2023-01-29T14:02:43.400Z,68.58
2023-01-29T14:05:41.489Z,67.93
2023-01-29T14:08:45.459Z,68.82
2023-01-29T14:11:37.652Z,68.88
2023-01-29T14:15:02.785Z,68.96
2023-01-29T14:18:16.657Z,69.29
2023-01-29T14:21:02.752Z,69.77
2023-01-29T14:23:48.249Z,69.35
2023-01-29T14:26:34.520Z,70.35
2023-01-29T14:29:29.066Z,71.01
2023-01-29T14:32:21.938Z,70.23
2023-01-29T14:35:21.180Z,70.59
2023-01-29T14:38:08.818Z,71.14
2023-01-29T14:40:52.840Z,71.31
2023-01-29T14:43:36.315Z,71.57
2023-01-29T14:46:45.984Z,69.66
2023-01-29T14:49:57.909Z,70.48
2023-01-29T14:52:51.193Z,71.29
2023-01-29T14:55:41.043Z,71.50
2023-01-29T14:58:31.038Z,71.84
2023-01-29T15:01:22.915Z,71.82
2023-01-29T15:04:14.082Z,72.87
2023-01-29T15:07:04.374Z,72.89
2023-01-29T15:09:51.109Z,72.41
2023-01-29T15:12:40.487Z,73.15
2023-01-29T15:15:36.828Z,73.96
2023-01-29T15:18:28.566Z,73.47
2023-01-29T15:21:16.484Z,73.32
2023-01-29T15:24:09.660Z,75.02
2023-01-29T15:26:52.818Z,75.52
2023-01-29T15:29:36.789Z,73.57
2023-01-29T15:32:30.752Z,75.22
2023-01-29T15:35:28.389Z,76.12
2023-01-29T15:38:24.090Z,75.60
2023-01-29T15:41:20.357Z,76.56
2023-01-29T15:44:03.763Z,77.65
2023-01-29T15:46:51.247Z,76.19
2023-01-29T15:49:39.263Z,75.91
2023-01-29T15:52:28.588Z,76.04
2023-01-29T15:55:18.082Z,74.56
2023-01-29T15:58:02.997Z,75.74
2023-01-29T16:00:52.255Z,76.35
2023-01-29T16:03:38.965Z,75.23
2023-01-29T16:06:23.435Z,76.04
2023-01-29T16:09:11.734Z,75.21
2023-01-29T16:11:58.237Z,76.94
2023-01-29T16:14:45.210Z,76.29
2023-01-29T16:17:35.349Z,77.20
2023-01-29T16:20:32.589Z,76.29
2023-01-29T16:23:21.756Z,77.23
2023-01-29T16:26:08.166Z,76.84
2023-01-29T16:28:51.719Z,76.62
2023-01-29T16:31:40.236Z,76.32
2023-01-29T16:34:31.407Z,78.03
2023-01-29T16:37:23.006Z,76.68
2023-01-29T16:40:17.119Z,76.98
2023-01-29T16:43:48.658Z,76.54
2023-01-29T16:46:37.710Z,76.49
2023-01-29T16:49:47.328Z,76.58
2023-01-29T16:52:32.744Z,75.87
2023-01-29T16:55:22.076Z,75.70
2023-01-29T16:58:13.812Z,75.49
2023-01-29T17:01:06.691Z,75.30
2023-01-29T17:03:58.834Z,75.21
2023-01-29T17:06:46.075Z,74.43
2023-01-29T17:09:35.616Z,75.11
2023-01-29T17:12:21.990Z,75.53
2023-01-29T17:15:27.242Z,76.56
2023-01-29T17:18:19.036Z,76.23
2023-01-29T17:21:03.630Z,76.25
2023-01-29T17:23:46.731Z,75.92
2023-01-29T17:26:33.182Z,75.85
2023-01-29T17:29:19.117Z,76.38
2023-01-29T17:32:02.670Z,76.88
2023-01-29T17:34:46.791Z,77.39
2023-01-29T17:37:31.311Z,76.20
2023-01-29T17:40:31.435Z,77.20
2023-01-29T17:43:14.560Z,75.72
2023-01-29T17:45:57.828Z,76.07
2023-01-29T17:48:41.308Z,76.21
2023-01-29T17:51:28.881Z,76.10
2023-01-29T17:54:13.566Z,76.78
2023-01-29T17:57:00.288Z,75.14
2023-01-29T17:59:45.010Z,75.09
2023-01-29T18:02:31.299Z,75.11
2023-01-29T18:05:16.935Z,74.94
2023-01-29T18:08:00.503Z,74.68
2023-01-29T18:10:47.965Z,74.50
2023-01-29T18:13:31.173Z,74.25
2023-01-29T18:16:14.591Z,75.19
2023-01-29T18:18:57.715Z,75.39
2023-01-29T18:21:41.091Z,75.63
2023-01-29T18:24:26.647Z,75.96
2023-01-29T18:27:13.186Z,75.26
2023-01-29T18:29:57.868Z,76.89
2023-01-29T18:32:41.155Z,75.76
2023-01-29T18:35:24.872Z,75.86
2023-01-29T18:38:08.096Z,75.72
2023-01-29T18:40:51.363Z,77.03
2023-01-29T18:43:38.470Z,76.42
2023-01-29T18:46:24.355Z,77.40
2023-01-29T18:49:09.253Z,76.37
2023-01-29T18:51:55.337Z,76.85
2023-01-29T18:54:40.280Z,76.56
2023-01-29T18:58:29.371Z,76.78
2023-01-29T19:00:28.106Z,75.91
2023-01-29T19:03:11.876Z,77.10
2023-01-29T19:05:58.368Z,77.14
2023-01-29T19:08:43.089Z,77.84
2023-01-29T19:11:28.500Z,76.86
2023-01-29T19:14:11.522Z,76.40
2023-01-29T19:16:59.565Z,76.72
2023-01-29T19:19:42.850Z,78.06
2023-01-29T19:22:29.057Z,77.02
2023-01-29T19:25:21.689Z,77.85
2023-01-29T19:28:05.369Z,77.18
2023-01-29T19:30:48.969Z,76.73
2023-01-29T19:33:35.432Z,76.98
2023-01-29T19:36:20.911Z,77.09
2023-01-29T19:39:04.180Z,76.78
2023-01-29T19:41:48.903Z,78.31
2023-01-29T19:44:32.511Z,77.64
2023-01-29T19:47:16.159Z,78.55
2023-01-29T19:50:02.540Z,78.11
2023-01-29T19:52:51.778Z,78.34
2023-01-29T19:55:37.631Z,78.07
2023-01-29T19:58:21.084Z,77.76
2023-01-29T20:01:06.946Z,77.43
2023-01-29T20:03:54.372Z,77.37
2023-01-29T20:06:41.280Z,77.66
2023-01-29T20:09:27.455Z,78.20
2023-01-29T20:12:13.134Z,78.39
2023-01-29T20:14:56.431Z,77.16
2023-01-29T20:17:40.595Z,77.65
2023-01-29T20:20:24.337Z,77.70
2023-01-29T20:23:25.047Z,79.01
2023-01-29T20:26:16.833Z,77.91
2023-01-29T20:29:02.449Z,77.78
2023-01-29T20:31:46.034Z,78.14
2023-01-29T20:34:29.372Z,78.44
2023-01-29T20:37:12.526Z,78.31
2023-01-29T20:39:57.086Z,78.62
2023-01-29T20:42:40.203Z,78.42
2023-01-29T20:45:25.189Z,78.37
2023-01-29T20:48:08.984Z,78.39
2023-01-29T20:50:52.518Z,78.03
2023-01-29T20:53:36.242Z,77.84
2023-01-29T20:56:32.170Z,77.60
2023-01-29T20:59:20.711Z,77.67
2023-01-29T21:02:06.700Z,77.75
2023-01-29T21:04:50.169Z,77.72
2023-01-29T21:07:33.746Z,77.48
2023-01-29T21:10:17.800Z,77.28
2023-01-29T21:13:03.633Z,77.92
2023-01-29T21:15:46.777Z,76.12
2023-01-29T21:18:30.381Z,76.36
2023-01-29T21:21:13.782Z,76.26
2023-01-29T21:23:58.283Z,74.45
2023-01-29T21:26:43.772Z,75.40
2023-01-29T21:29:30.602Z,74.20
2023-01-29T21:32:14.213Z,75.04
2023-01-29T21:34:57.230Z,75.87
2023-01-29T21:37:44.163Z,76.32
2023-01-29T21:40:27.359Z,75.56
2023-01-29T21:43:12.223Z,75.05
2023-01-29T21:46:02.613Z,75.12
2023-01-29T21:48:45.780Z,76.02
2023-01-29T21:51:29.414Z,75.31
2023-01-29T21:54:12.412Z,75.21
2023-01-29T21:56:57.383Z,74.48
2023-01-29T21:59:40.549Z,74.78
2023-01-29T22:02:26.641Z,74.64
2023-01-29T22:05:18.939Z,74.66
2023-01-29T22:08:04.996Z,74.11
2023-01-29T22:10:48.274Z,72.31
2023-01-29T22:13:35.611Z,71.97
2023-01-29T22:16:18.742Z,73.47
2023-01-29T22:19:03.363Z,71.97
2023-01-29T22:21:46.493Z,73.10
2023-01-29T22:24:29.768Z,71.87
2023-01-29T22:27:13.101Z,71.92
2023-01-29T22:29:57.003Z,71.98
2023-01-29T22:32:40.175Z,71.83
2023-01-29T22:35:24.687Z,73.15
2023-01-29T22:38:07.935Z,71.43
2023-01-29T22:40:51.389Z,71.05
2023-01-29T22:43:34.576Z,70.78
2023-01-29T22:46:19.603Z,72.29
2023-01-29T22:49:02.695Z,69.82
2023-01-29T22:51:48.562Z,71.64
2023-01-29T22:54:31.614Z,71.56
2023-01-29T22:57:16.413Z,71.85
2023-01-29T22:59:59.636Z,72.78
2023-01-29T23:02:42.720Z,73.08
2023-01-29T23:05:25.740Z,73.56
2023-01-29T23:08:12.695Z,73.23
2023-01-29T23:10:55.834Z,72.14
2023-01-29T23:13:38.922Z,74.94
2023-01-29T23:16:28.166Z,74.14
2023-01-29T23:19:12.829Z,73.68
2023-01-29T23:21:55.868Z,74.89
2023-01-29T23:24:40.351Z,75.76
2023-01-29T23:27:22.379Z,74.04
2023-01-29T23:30:06.747Z,74.32
2023-01-29T23:32:52.381Z,73.50
2023-01-29T23:35:35.440Z,74.37
2023-01-29T23:38:18.642Z,72.82
2023-01-29T23:41:03.101Z,72.34
2023-01-29T23:43:46.429Z,72.49
2023-01-29T23:46:29.589Z,72.63
2023-01-29T23:49:12.876Z,72.62
2023-01-29T23:51:56.014Z,71.49
2023-01-29T23:54:39.107Z,70.89
2023-01-29T23:57:28.563Z,71.68
